Time;durP1;ratioP1;P1;durP2;ratioP2;P2;SDS_P1;SDS_P2;PMS_P1;PMS_P2;Temp;Humidity;BMP_temperature;BMP_pressure;BME280_temperature;BME280_humidity;BME280_pressure;Samples;Min_cycle;Max_cycle;Signal;HPM_P1;HPM_P2
2021/08/06 00:00:23;;;;;;;;;;;15.60;99.90;;;;;;5119576;27;20499;-75
2021/08/06 00:02:49;;;;;;;;;;;15.50;99.90;;;;;;5125633;27;19920;-75
2021/08/06 00:05:14;;;;;;;;;;;15.50;99.90;;;;;;5129442;28;19998;-75
2021/08/06 00:07:40;;;;;;;;;;;15.50;99.90;;;;;;5114547;28;19915;-75
2021/08/06 00:10:06;;;;;;;;;;;15.40;99.90;;;;;;5116042;28;19976;-75
2021/08/06 00:12:32;;;;;;;;;;;15.40;99.90;;;;;;5122004;27;20000;-75
2021/08/06 00:14:57;;;;;;;;;;;15.30;99.90;;;;;;5128432;28;20386;-75
2021/08/06 00:17:23;;;;;;;;;;;15.30;99.90;;;;;;5127622;28;19938;-75
2021/08/06 00:19:49;;;;;;;;;;;15.30;99.90;;;;;;5116663;28;19941;-75
2021/08/06 00:22:14;;;;;;;;;;;15.30;99.90;;;;;;5118135;28;19946;-76
2021/08/06 00:24:41;;;;;;;;;;;15.30;99.90;;;;;;5131190;28;19923;-75
2021/08/06 00:27:06;;;;;;;;;;;15.30;99.90;;;;;;5128589;27;19926;-76
2021/08/06 00:29:32;;;;;;;;;;;15.20;99.90;;;;;;5124222;27;19931;-75
2021/08/06 00:31:58;;;;;;;;;;;15.20;99.90;;;;;;5128622;27;19919;-76
2021/08/06 00:34:24;;;;;;;;;;;15.20;99.90;;;;;;5128973;27;19968;-75
2021/08/06 00:36:49;;;;;;;;;;;15.20;99.90;;;;;;5129494;27;20027;-76
2021/08/06 00:39:15;;;;;;;;;;;15.20;99.90;;;;;;5136219;27;20006;-75
2021/08/06 00:41:40;;;;;;;;;;;15.20;99.90;;;;;;5135126;27;20364;-76
2021/08/06 00:44:06;;;;;;;;;;;15.10;99.90;;;;;;5122579;27;20296;-75
2021/08/06 00:46:33;;;;;;;;;;;15.10;99.90;;;;;;5130203;27;19915;-75
2021/08/06 00:48:59;;;;;;;;;;;15.10;99.90;;;;;;5132747;27;19915;-75
2021/08/06 00:51:24;;;;;;;;;;;15.10;99.90;;;;;;5135415;27;19920;-75
2021/08/06 00:53:50;;;;;;;;;;;15.10;99.90;;;;;;5126807;27;19953;-75
2021/08/06 00:56:18;;;;;;;;;;;15.00;99.90;;;;;;5134454;27;19968;-75
2021/08/06 00:58:44;;;;;;;;;;;15.00;99.90;;;;;;5126973;27;19920;-75
2021/08/06 01:01:09;;;;;;;;;;;15.00;99.90;;;;;;5129745;27;19916;-75
2021/08/06 01:03:38;;;;;;;;;;;14.90;99.90;;;;;;5131136;27;19959;-75
2021/08/06 01:06:08;;;;;;;;;;;14.90;99.90;;;;;;5135051;27;20372;-75
2021/08/06 01:08:42;;;;;;;;;;;14.90;99.90;;;;;;5129378;27;20018;-74
2021/08/06 01:11:08;;;;;;;;;;;14.80;99.90;;;;;;5132259;27;20014;-74
2021/08/06 01:13:42;;;;;;;;;;;14.80;99.90;;;;;;5134852;27;19916;-76
2021/08/06 01:16:09;;;;;;;;;;;14.80;99.90;;;;;;5135811;27;20384;-76
2021/08/06 01:18:35;;;;;;;;;;;14.70;99.90;;;;;;5131017;27;19922;-75
2021/08/06 01:21:09;;;;;;;;;;;14.70;99.90;;;;;;5129575;27;19916;-75
2021/08/06 01:23:39;;;;;;;;;;;14.70;99.90;;;;;;5130684;27;19921;-75
2021/08/06 01:26:08;;;;;;;;;;;14.70;99.90;;;;;;5122462;27;20568;-75
2021/08/06 01:28:36;;;;;;;;;;;14.60;99.90;;;;;;5126489;27;19920;-73
2021/08/06 01:31:02;;;;;;;;;;;14.70;99.90;;;;;;5133583;27;19926;-75
2021/08/06 01:33:28;;;;;;;;;;;14.60;99.90;;;;;;5133910;27;19919;-74
2021/08/06 01:35:53;;;;;;;;;;;14.60;99.90;;;;;;5128642;27;19920;-76
2021/08/06 01:38:19;;;;;;;;;;;14.60;99.90;;;;;;5128565;27;19992;-76
2021/08/06 01:40:51;;;;;;;;;;;14.60;99.90;;;;;;5128009;27;20383;-76
2021/08/06 01:43:23;;;;;;;;;;;14.60;99.90;;;;;;5134774;27;19919;-75
2021/08/06 01:45:52;;;;;;;;;;;14.60;99.90;;;;;;5130541;27;19934;-75
2021/08/06 01:48:19;;;;;;;;;;;14.60;99.90;;;;;;5129611;27;19923;-75
2021/08/06 01:50:45;;;;;;;;;;;14.60;99.90;;;;;;5130522;27;19920;-75
2021/08/06 01:53:13;;;;;;;;;;;14.60;99.90;;;;;;5130937;27;20325;-75
2021/08/06 01:55:49;;;;;;;;;;;14.50;99.90;;;;;;5124357;27;20265;-75
2021/08/06 01:58:14;;;;;;;;;;;14.50;99.90;;;;;;5131904;27;20364;-75
2021/08/06 02:00:40;;;;;;;;;;;14.50;99.90;;;;;;5131731;27;19927;-74
2021/08/06 02:03:07;;;;;;;;;;;14.50;99.90;;;;;;5133216;27;19961;-75
2021/08/06 02:05:33;;;;;;;;;;;14.50;99.90;;;;;;5127057;27;20018;-75
2021/08/06 02:07:58;;;;;;;;;;;14.50;99.90;;;;;;5131273;27;20383;-75
2021/08/06 02:10:25;;;;;;;;;;;14.50;99.90;;;;;;5129567;27;20291;-75
2021/08/06 02:12:50;;;;;;;;;;;14.50;99.90;;;;;;5133499;27;19930;-75
2021/08/06 02:15:16;;;;;;;;;;;14.50;99.90;;;;;;5133265;27;19915;-74
2021/08/06 02:17:43;;;;;;;;;;;14.40;99.90;;;;;;5132218;27;19916;-76
2021/08/06 02:20:09;;;;;;;;;;;14.40;99.90;;;;;;5122436;27;19919;-74
2021/08/06 02:22:35;;;;;;;;;;;14.40;99.90;;;;;;5121517;27;20376;-76
2021/08/06 02:25:03;;;;;;;;;;;14.40;99.90;;;;;;5130835;27;20372;-77
2021/08/06 02:27:30;;;;;;;;;;;14.40;99.90;;;;;;5131523;27;19926;-76
2021/08/06 02:29:57;;;;;;;;;;;14.40;99.90;;;;;;5126485;27;19947;-76
2021/08/06 02:32:23;;;;;;;;;;;14.30;99.90;;;;;;5130984;27;19930;-76
2021/08/06 02:34:50;;;;;;;;;;;14.30;99.90;;;;;;5123890;27;20615;-76
2021/08/06 02:37:15;;;;;;;;;;;14.30;99.90;;;;;;5132976;27;19915;-75
2021/08/06 02:39:41;;;;;;;;;;;14.30;99.90;;;;;;5123155;27;19938;-76
2021/08/06 02:42:07;;;;;;;;;;;14.30;99.90;;;;;;5131507;27;19961;-77
2021/08/06 02:44:33;;;;;;;;;;;14.30;99.90;;;;;;5118600;27;20373;-76
2021/08/06 02:46:59;;;;;;;;;;;14.30;99.90;;;;;;5111986;27;20507;-76
2021/08/06 02:49:27;;;;;;;;;;;14.30;99.90;;;;;;5125027;27;20010;-76
2021/08/06 02:51:52;;;;;;;;;;;14.40;99.90;;;;;;5130345;27;19924;-76
2021/08/06 02:54:18;;;;;;;;;;;14.40;99.90;;;;;;5125215;27;20296;-75
2021/08/06 02:56:44;;;;;;;;;;;14.40;99.90;;;;;;5131881;27;19923;-76
2021/08/06 02:59:09;;;;;;;;;;;14.50;99.90;;;;;;5120576;27;19916;-76
2021/08/06 03:01:35;;;;;;;;;;;14.50;99.90;;;;;;5122231;27;19922;-75
2021/08/06 03:04:01;;;;;;;;;;;14.50;99.90;;;;;;5122785;27;20361;-75
2021/08/06 03:06:26;;;;;;;;;;;14.50;99.90;;;;;;5124196;27;19920;-75
2021/08/06 03:08:52;;;;;;;;;;;14.60;99.90;;;;;;5131956;27;19938;-75
2021/08/06 03:11:18;;;;;;;;;;;14.60;99.90;;;;;;5131688;27;19923;-76
2021/08/06 03:13:43;;;;;;;;;;;14.70;99.90;;;;;;5132533;27;19915;-75
2021/08/06 03:16:09;;;;;;;;;;;14.70;99.90;;;;;;5129158;27;20006;-75
2021/08/06 03:18:35;;;;;;;;;;;14.70;99.90;;;;;;5121418;27;19923;-75
2021/08/06 03:21:00;;;;;;;;;;;14.70;99.90;;;;;;5131212;27;19941;-76
2021/08/06 03:23:26;;;;;;;;;;;14.80;99.90;;;;;;5121134;27;20435;-75
2021/08/06 03:25:51;;;;;;;;;;;14.80;99.90;;;;;;5123620;27;19929;-75
2021/08/06 03:28:18;;;;;;;;;;;14.80;99.90;;;;;;5132460;27;19926;-76
2021/08/06 03:30:43;;;;;;;;;;;14.70;99.90;;;;;;5126899;27;20014;-75
2021/08/06 03:33:09;;;;;;;;;;;14.70;99.90;;;;;;5118951;27;20314;-76
2021/08/06 03:35:35;;;;;;;;;;;14.70;99.90;;;;;;5126655;27;19976;-75
2021/08/06 03:38:00;;;;;;;;;;;14.70;99.90;;;;;;5129171;27;19927;-76
2021/08/06 03:40:26;;;;;;;;;;;14.70;99.90;;;;;;5124240;28;19920;-76
2021/08/06 03:42:52;;;;;;;;;;;14.70;99.90;;;;;;5131928;28;19922;-76
2021/08/06 03:45:17;;;;;;;;;;;14.70;99.90;;;;;;5123943;28;19915;-75
2021/08/06 03:47:43;;;;;;;;;;;14.80;99.90;;;;;;5123656;28;19915;-75
2021/08/06 03:50:09;;;;;;;;;;;14.80;99.90;;;;;;5115978;28;19958;-75
2021/08/06 03:52:34;;;;;;;;;;;14.80;99.90;;;;;;5125285;27;19931;-76
2021/08/06 03:55:01;;;;;;;;;;;14.90;99.90;;;;;;5126157;28;19916;-76
2021/08/06 03:57:26;;;;;;;;;;;14.90;99.90;;;;;;5126299;27;19927;-76
2021/08/06 03:59:52;;;;;;;;;;;15.00;99.90;;;;;;5124526;28;19916;-74
2021/08/06 04:02:18;;;;;;;;;;;15.00;99.90;;;;;;5129225;27;19916;-75
2021/08/06 04:04:43;;;;;;;;;;;15.00;99.90;;;;;;5117291;27;19915;-74
2021/08/06 04:07:09;;;;;;;;;;;15.00;99.90;;;;;;5128959;27;19926;-74
2021/08/06 04:09:35;;;;;;;;;;;15.10;99.90;;;;;;5127848;27;20316;-74
2021/08/06 04:12:00;;;;;;;;;;;15.10;99.90;;;;;;5124115;27;19920;-75
2021/08/06 04:14:26;;;;;;;;;;;15.10;99.90;;;;;;5132760;27;19954;-75
2021/08/06 04:16:51;;;;;;;;;;;15.20;99.90;;;;;;5117038;27;19973;-75
2021/08/06 04:19:17;;;;;;;;;;;15.20;99.90;;;;;;5131811;27;19984;-75
2021/08/06 04:21:43;;;;;;;;;;;15.20;99.90;;;;;;5123992;27;19961;-75
2021/08/06 04:24:08;;;;;;;;;;;15.30;99.90;;;;;;5126758;27;19916;-75
2021/08/06 04:26:35;;;;;;;;;;;15.30;99.90;;;;;;5116402;27;19927;-74
2021/08/06 04:29:06;;;;;;;;;;;15.40;99.90;;;;;;5129137;27;19922;-74
2021/08/06 04:31:32;;;;;;;;;;;15.40;99.90;;;;;;5142596;27;19919;-75
2021/08/06 04:33:58;;;;;;;;;;;15.50;99.90;;;;;;5116967;27;19930;-74
2021/08/06 04:36:24;;;;;;;;;;;15.50;99.90;;;;;;5129445;27;19958;-75
2021/08/06 04:38:50;;;;;;;;;;;15.50;99.90;;;;;;5123651;27;20344;-76
2021/08/06 04:41:16;;;;;;;;;;;15.50;99.90;;;;;;5134822;27;20306;-75
2021/08/06 04:43:41;;;;;;;;;;;15.60;99.90;;;;;;5121823;27;20429;-75
2021/08/06 04:46:07;;;;;;;;;;;15.60;99.90;;;;;;5113683;28;19950;-75
2021/08/06 04:48:33;;;;;;;;;;;15.60;99.90;;;;;;5130587;27;19930;-75
2021/08/06 04:50:58;;;;;;;;;;;15.60;99.90;;;;;;5127009;27;19916;-75
2021/08/06 04:53:24;;;;;;;;;;;15.60;99.90;;;;;;5121977;27;19927;-75
2021/08/06 04:55:50;;;;;;;;;;;15.60;99.90;;;;;;5135095;27;20007;-75
2021/08/06 04:58:15;;;;;;;;;;;15.70;99.90;;;;;;5133382;27;19916;-75
2021/08/06 05:00:41;;;;;;;;;;;15.60;99.90;;;;;;5132212;27;19947;-75
2021/08/06 05:03:07;;;;;;;;;;;15.70;99.90;;;;;;5123811;27;20440;-75
2021/08/06 05:05:32;;;;;;;;;;;15.70;99.90;;;;;;5132922;27;20014;-75
2021/08/06 05:07:58;;;;;;;;;;;15.70;99.90;;;;;;5124166;27;19960;-75
2021/08/06 05:10:24;;;;;;;;;;;15.70;99.90;;;;;;5124033;27;19943;-76
2021/08/06 05:12:51;;;;;;;;;;;15.80;99.90;;;;;;5129288;27;19916;-76
2021/08/06 05:15:19;;;;;;;;;;;15.80;99.90;;;;;;5132429;27;19922;-76
2021/08/06 05:17:44;;;;;;;;;;;15.80;99.90;;;;;;5133314;27;19919;-76
2021/08/06 05:20:10;;;;;;;;;;;15.90;99.90;;;;;;5134526;27;19915;-76
2021/08/06 05:22:36;;;;;;;;;;;16.00;99.90;;;;;;5130254;27;19915;-76
2021/08/06 05:25:02;;;;;;;;;;;16.00;99.90;;;;;;5132066;27;19963;-75
2021/08/06 05:27:28;;;;;;;;;;;16.00;99.90;;;;;;5133522;27;19950;-77
2021/08/06 05:29:54;;;;;;;;;;;16.00;99.90;;;;;;5133920;27;19926;-75
2021/08/06 05:32:20;;;;;;;;;;;16.00;99.90;;;;;;5132621;27;19920;-75
2021/08/06 05:34:46;;;;;;;;;;;16.00;99.90;;;;;;5125377;27;20010;-75
2021/08/06 05:37:11;;;;;;;;;;;16.00;99.90;;;;;;5134566;27;19915;-75
2021/08/06 05:39:37;;;;;;;;;;;16.00;99.90;;;;;;5134422;27;19915;-75
2021/08/06 05:42:03;;;;;;;;;;;16.10;99.90;;;;;;5125797;27;19922;-75
2021/08/06 05:44:29;;;;;;;;;;;16.10;99.90;;;;;;5131940;27;19929;-73
2021/08/06 05:46:55;;;;;;;;;;;16.20;99.90;;;;;;5128753;27;20491;-73
2021/08/06 05:49:22;;;;;;;;;;;16.20;99.90;;;;;;5131757;27;19926;-75
2021/08/06 05:51:48;;;;;;;;;;;16.20;99.90;;;;;;5129756;27;19915;-74
2021/08/06 05:54:14;;;;;;;;;;;16.20;99.90;;;;;;5133884;27;19923;-75
2021/08/06 05:56:39;;;;;;;;;;;16.30;99.90;;;;;;5136850;27;20435;-75
2021/08/06 05:59:05;;;;;;;;;;;16.40;99.90;;;;;;5133117;27;20353;-75
2021/08/06 06:01:31;;;;;;;;;;;16.40;99.90;;;;;;5133275;27;20268;-76
2021/08/06 06:03:56;;;;;;;;;;;16.50;99.90;;;;;;5120515;27;19922;-76
2021/08/06 06:06:22;;;;;;;;;;;16.50;99.90;;;;;;5133270;27;19922;-75
2021/08/06 06:08:48;;;;;;;;;;;16.50;99.90;;;;;;5119227;27;19922;-75
2021/08/06 06:11:14;;;;;;;;;;;16.50;99.90;;;;;;5129045;27;19927;-75
2021/08/06 06:13:40;;;;;;;;;;;16.50;99.90;;;;;;5133683;27;19922;-75
2021/08/06 06:16:06;;;;;;;;;;;16.60;99.90;;;;;;5133111;27;19915;-75
2021/08/06 06:18:32;;;;;;;;;;;16.60;99.90;;;;;;5125107;27;19922;-75
2021/08/06 06:20:58;;;;;;;;;;;16.80;99.90;;;;;;5134655;27;20445;-75
2021/08/06 06:23:23;;;;;;;;;;;17.00;99.90;;;;;;5133158;27;19916;-76
2021/08/06 06:25:50;;;;;;;;;;;17.20;99.90;;;;;;5119594;27;20006;-76
2021/08/06 06:28:16;;;;;;;;;;;17.40;99.90;;;;;;5131539;27;20367;-76
2021/08/06 06:30:42;;;;;;;;;;;17.60;99.90;;;;;;5126496;27;20018;-75
2021/08/06 06:33:08;;;;;;;;;;;17.70;99.90;;;;;;5118911;27;20358;-75
2021/08/06 06:35:33;;;;;;;;;;;17.80;99.90;;;;;;5133954;27;19915;-76
2021/08/06 06:37:59;;;;;;;;;;;17.90;99.90;;;;;;5124116;27;19915;-75
2021/08/06 06:40:26;;;;;;;;;;;17.90;99.90;;;;;;5133409;27;19964;-77
2021/08/06 06:42:52;;;;;;;;;;;17.90;99.90;;;;;;5122113;27;19919;-76
2021/08/06 06:45:18;;;;;;;;;;;18.00;99.90;;;;;;5123155;27;20307;-76
2021/08/06 06:47:48;;;;;;;;;;;17.90;99.90;;;;;;5117421;27;19915;-75
2021/08/06 06:50:16;;;;;;;;;;;17.80;99.90;;;;;;5119945;27;19923;-75
2021/08/06 06:52:42;;;;;;;;;;;17.80;99.90;;;;;;5126669;27;20010;-75
2021/08/06 06:55:08;;;;;;;;;;;17.70;99.90;;;;;;5121994;27;20010;-75
2021/08/06 06:57:44;;;;;;;;;;;17.70;99.90;;;;;;5117430;27;20326;-75
2021/08/06 07:00:11;;;;;;;;;;;17.80;99.90;;;;;;5121575;27;19919;-75
2021/08/06 07:02:36;;;;;;;;;;;17.80;99.90;;;;;;5116404;27;19998;-75
2021/08/06 07:05:03;;;;;;;;;;;18.00;99.90;;;;;;5127039;27;20006;-74
2021/08/06 07:07:28;;;;;;;;;;;18.10;99.90;;;;;;5115245;27;19919;-75
2021/08/06 07:09:54;;;;;;;;;;;18.30;99.90;;;;;;5114897;27;19923;-74
2021/08/06 07:12:20;;;;;;;;;;;18.60;99.90;;;;;;5126778;27;19926;-74
2021/08/06 07:14:45;;;;;;;;;;;18.80;99.90;;;;;;5126468;27;19922;-75
2021/08/06 07:17:11;;;;;;;;;;;18.90;99.90;;;;;;5107738;27;19969;-74
2021/08/06 07:19:36;;;;;;;;;;;19.10;99.90;;;;;;5122265;27;19926;-75
2021/08/06 07:22:02;;;;;;;;;;;19.20;99.90;;;;;;5124229;27;20010;-76
2021/08/06 07:24:28;;;;;;;;;;;19.30;99.90;;;;;;5122669;27;19959;-75
2021/08/06 07:26:54;;;;;;;;;;;19.30;99.90;;;;;;5117930;27;19961;-75
2021/08/06 07:29:19;;;;;;;;;;;19.30;99.90;;;;;;5121387;27;19946;-75
2021/08/06 07:31:45;;;;;;;;;;;19.20;99.90;;;;;;5121682;27;19935;-75
2021/08/06 07:34:11;;;;;;;;;;;19.20;99.90;;;;;;5116119;27;20293;-75
2021/08/06 07:36:37;;;;;;;;;;;19.20;99.90;;;;;;5128837;27;20379;-75
2021/08/06 07:39:03;;;;;;;;;;;19.10;99.90;;;;;;5114401;28;19999;-74
2021/08/06 07:41:29;;;;;;;;;;;18.90;99.90;;;;;;5111109;27;19926;-75
2021/08/06 07:43:54;;;;;;;;;;;18.70;99.90;;;;;;5126237;28;20170;-75
2021/08/06 07:46:20;;;;;;;;;;;18.50;99.90;;;;;;5125770;28;19962;-75
2021/08/06 07:48:46;;;;;;;;;;;18.30;99.90;;;;;;5123555;28;20338;-75
2021/08/06 07:51:11;;;;;;;;;;;18.00;99.90;;;;;;5118855;28;19923;-74
2021/08/06 07:53:37;;;;;;;;;;;17.80;99.90;;;;;;5123908;28;20216;-75
2021/08/06 07:56:03;;;;;;;;;;;17.60;99.90;;;;;;5117381;28;19947;-75
2021/08/06 07:58:29;;;;;;;;;;;17.50;99.90;;;;;;5110772;28;19965;-76
2021/08/06 08:00:54;;;;;;;;;;;17.50;99.90;;;;;;5127436;28;19958;-74
2021/08/06 08:03:20;;;;;;;;;;;17.50;99.90;;;;;;5120093;28;19927;-76
2021/08/06 08:05:46;;;;;;;;;;;17.50;99.90;;;;;;5126151;28;19984;-76
2021/08/06 08:08:11;;;;;;;;;;;17.50;99.90;;;;;;5120858;28;19942;-76
2021/08/06 08:10:37;;;;;;;;;;;17.60;99.90;;;;;;5118692;28;19919;-77
2021/08/06 08:13:03;;;;;;;;;;;17.70;99.90;;;;;;5120802;28;19915;-75
2021/08/06 08:15:28;;;;;;;;;;;17.70;99.90;;;;;;5122540;28;19919;-76
2021/08/06 08:17:54;;;;;;;;;;;17.80;99.90;;;;;;5115134;28;19976;-76
2021/08/06 08:20:20;;;;;;;;;;;17.90;99.90;;;;;;5111840;28;19926;-76
2021/08/06 08:22:45;;;;;;;;;;;18.00;99.90;;;;;;5121946;28;19919;-77
2021/08/06 08:25:11;;;;;;;;;;;18.10;99.90;;;;;;5125764;28;19926;-76
2021/08/06 08:27:37;;;;;;;;;;;18.20;99.90;;;;;;5113400;28;19916;-76
2021/08/06 08:30:06;;;;;;;;;;;18.30;99.90;;;;;;5119362;27;20352;-77
2021/08/06 08:32:34;;;;;;;;;;;18.40;99.90;;;;;;5120653;28;19951;-76
2021/08/06 08:34:59;;;;;;;;;;;18.50;99.90;;;;;;5126348;28;19919;-76
2021/08/06 08:37:25;;;;;;;;;;;18.40;99.90;;;;;;5121728;28;20279;-76
2021/08/06 08:39:51;;;;;;;;;;;18.40;99.90;;;;;;5112172;28;19915;-75
2021/08/06 08:42:18;;;;;;;;;;;18.30;99.90;;;;;;5108907;28;19919;-76
2021/08/06 08:44:44;;;;;;;;;;;18.20;99.90;;;;;;5116007;28;19948;-77
2021/08/06 08:47:10;;;;;;;;;;;18.10;99.90;;;;;;5122840;27;19923;-77
2021/08/06 08:49:36;;;;;;;;;;;18.00;99.90;;;;;;5127828;27;20299;-76
2021/08/06 08:52:02;;;;;;;;;;;17.90;99.90;;;;;;5124872;27;19923;-76
2021/08/06 08:54:28;;;;;;;;;;;18.00;99.90;;;;;;5115677;27;19930;-77
2021/08/06 08:56:54;;;;;;;;;;;18.00;99.90;;;;;;5125739;27;19926;-76
2021/08/06 08:59:20;;;;;;;;;;;18.10;99.90;;;;;;5113073;27;19915;-76
2021/08/06 09:01:45;;;;;;;;;;;18.20;99.90;;;;;;5121363;27;19961;-78
2021/08/06 09:04:19;;;;;;;;;;;18.20;99.90;;;;;;5116491;27;19963;-76
2021/08/06 09:06:45;;;;;;;;;;;18.30;99.90;;;;;;5126484;27;19923;-77
2021/08/06 09:09:12;;;;;;;;;;;18.40;99.90;;;;;;5120818;27;19916;-78
2021/08/06 09:11:37;;;;;;;;;;;18.50;99.90;;;;;;5122902;27;19977;-75
2021/08/06 09:14:20;;;;;;;;;;;18.50;99.90;;;;;;5117648;27;19954;-76
2021/08/06 09:17:06;;;;;;;;;;;18.60;99.90;;;;;;5141954;27;19915;-76
2021/08/06 09:19:39;;;;;;;;;;;18.50;99.90;;;;;;5122143;27;19926;-76
2021/08/06 09:22:31;;;;;;;;;;;18.50;99.90;;;;;;5125941;27;19919;-76
2021/08/06 09:25:12;;;;;;;;;;;18.40;99.90;;;;;;5116130;27;19919;-75
2021/08/06 09:27:41;;;;;;;;;;;18.50;99.90;;;;;;5124311;27;20014;-75
2021/08/06 09:30:08;;;;;;;;;;;18.60;99.90;;;;;;5123527;27;20077;-75
2021/08/06 09:32:44;;;;;;;;;;;18.80;99.90;;;;;;5110369;27;19961;-76
2021/08/06 09:35:13;;;;;;;;;;;19.00;99.90;;;;;;5130556;27;20265;-76
2021/08/06 09:37:39;;;;;;;;;;;19.10;99.90;;;;;;5122323;27;20379;-76
2021/08/06 09:40:11;;;;;;;;;;;19.30;99.90;;;;;;5122157;27;19919;-76
2021/08/06 09:42:38;;;;;;;;;;;19.50;99.90;;;;;;5118019;27;19919;-76
2021/08/06 09:45:05;;;;;;;;;;;19.50;99.90;;;;;;5106934;27;20336;-75
2021/08/06 09:47:32;;;;;;;;;;;19.50;99.90;;;;;;5110405;27;20010;-74
2021/08/06 09:49:58;;;;;;;;;;;19.40;99.90;;;;;;5114892;27;20146;-75
2021/08/06 09:52:30;;;;;;;;;;;19.40;99.90;;;;;;5110975;27;20061;-76
2021/08/06 09:54:57;;;;;;;;;;;19.40;99.90;;;;;;5116222;27;19966;-75
2021/08/06 09:57:23;;;;;;;;;;;19.40;99.90;;;;;;5126246;27;19999;-75
2021/08/06 09:59:50;;;;;;;;;;;19.30;99.90;;;;;;5118462;27;19927;-75
2021/08/06 10:02:16;;;;;;;;;;;19.40;99.90;;;;;;5119163;27;20263;-75
2021/08/06 10:05:40;;;;;;;7.10;6.10;;;19.40;99.90;;;;;;5131685;27;20580;-76
2021/08/06 10:08:06;;;;;;;6.85;5.88;;;19.50;99.90;;;;;;5101163;28;20077;-75
2021/08/06 10:10:35;;;;;;;7.63;6.15;;;19.50;99.90;;;;;;5118545;27;20063;-75
2021/08/06 10:13:02;;;;;;;6.93;6.05;;;19.40;99.90;;;;;;5119584;28;20039;-75
2021/08/06 10:15:28;;;;;;;8.38;6.85;;;19.40;99.90;;;;;;5124101;27;20492;-76
2021/08/06 10:17:56;;;;;;;6.75;5.78;;;19.50;99.90;;;;;;5101818;28;20037;-75
2021/08/06 10:20:24;;;;;;;7.07;6.20;;;19.60;99.90;;;;;;5102159;28;20036;-75
2021/08/06 10:22:51;;;;;;;7.18;5.70;;;19.70;99.90;;;;;;5120800;28;20391;-75
2021/08/06 10:25:23;;;;;;;6.82;6.13;;;19.80;99.90;;;;;;5101560;28;20031;-75
2021/08/06 10:27:50;;;;;;;6.35;5.53;;;19.80;99.90;;;;;;5117450;28;20043;-75
2021/08/06 10:30:32;;;;;;;6.57;5.80;;;19.90;99.90;;;;;;5115075;27;20076;-76
2021/08/06 10:33:30;;;;;;;5.70;5.10;;;20.20;99.90;;;;;;5120789;28;20061;-77
2021/08/06 10:36:04;;;;;;;5.80;4.97;;;20.50;99.90;;;;;;5060558;28;20055;-76
2021/08/06 10:38:40;;;;;;;7.45;5.05;;;20.70;99.90;;;;;;5087261;28;20070;-75
2021/08/06 10:41:15;;;;;;;5.33;4.80;;;21.00;99.90;;;;;;5122287;28;20039;-76
2021/08/06 10:43:59;;;;;;;4.70;4.20;;;21.30;99.90;;;;;;5087972;28;20043;-75
2021/08/06 10:46:25;;;;;;;5.20;4.35;;;21.60;99.90;;;;;;5099006;28;20540;-75
2021/08/06 10:48:55;;;;;;;5.75;4.47;;;21.70;99.90;;;;;;5086929;28;20038;-76
2021/08/06 10:51:25;;;;;;;6.25;5.20;;;21.80;99.90;;;;;;5100314;28;20443;-77
2021/08/06 10:53:57;;;;;;;5.13;4.28;;;21.90;99.90;;;;;;5108760;28;20040;-76
2021/08/06 10:56:25;;;;;;;6.03;4.18;;;21.90;99.90;;;;;;5109509;28;20043;-76
2021/08/06 10:59:02;;;;;;;5.18;4.65;;;22.00;99.90;;;;;;5120739;28;20040;-76
2021/08/06 11:03:56;;;;;;;5.55;4.50;;;21.90;99.90;;;;;;5119552;28;20104;-76
2021/08/06 11:06:47;;;;;;;5.07;4.57;;;22.10;99.90;;;;;;5120660;28;20040;-76
2021/08/06 11:09:23;;;;;;;4.63;4.13;;;22.20;99.90;;;;;;5091645;28;20047;-75
2021/08/06 11:12:07;;;;;;;4.60;4.03;;;22.40;99.90;;;;;;5119465;28;20046;-75
2021/08/06 11:14:36;;;;;;;5.55;3.47;;;22.50;99.90;;;;;;5120181;28;20287;-75
2021/08/06 11:17:21;;;;;;;5.20;4.15;;;22.40;99.90;;;;;;5084785;28;20043;-76
2021/08/06 11:19:54;;;;;;;5.65;4.18;;;22.40;99.90;;;;;;5101722;28;20566;-76
2021/08/06 11:22:30;;;;;;;5.05;3.88;;;22.40;99.90;;;;;;5108742;28;20513;-76
2021/08/06 11:24:59;;;;;;;5.85;4.20;;;22.20;99.90;;;;;;5100520;28;20392;-76
2021/08/06 11:27:35;;;;;;;5.80;4.25;;;22.00;99.90;;;;;;5109270;28;20484;-75
2021/08/06 11:30:12;;;;;;;;;;;21.80;99.90;;;;;;5085204;28;20560;-75
2021/08/06 11:32:59;;;;;;;5.78;4.22;;;21.50;99.90;;;;;;5104142;28;19923;-76
2021/08/06 11:35:31;;;;;;;5.85;4.68;;;21.20;99.90;;;;;;5096545;28;20043;-76
2021/08/06 11:38:08;;;;;;;6.70;5.03;;;21.00;99.90;;;;;;5106404;28;20039;-76
2021/08/06 11:40:39;;;;;;;7.55;4.88;;;20.70;99.90;;;;;;5106792;28;20044;-76
2021/08/06 11:43:16;;;;;;;6.13;4.93;;;20.60;99.90;;;;;;5100054;28;20160;-76
2021/08/06 11:45:44;;;;;;;7.28;4.80;;;20.50;99.90;;;;;;5102398;27;20098;-75
2021/08/06 11:48:10;;;;;;;7.78;4.85;;;20.50;99.90;;;;;;5086787;28;20047;-74
2021/08/06 11:50:42;;;;;;;6.50;4.88;;;20.50;99.90;;;;;;5095650;28;20064;-75
2021/08/06 11:53:19;;;;;;;5.05;4.35;;;20.80;99.90;;;;;;5093089;28;20490;-75
2021/08/06 11:55:47;;;;;;;4.80;3.92;;;21.30;99.90;;;;;;5088370;28;20028;-75
2021/08/06 11:58:14;;;;;;;4.20;3.70;;;21.90;99.90;;;;;;5090810;28;20067;-75
2021/08/06 12:00:44;;;;;;;5.57;3.72;;;22.50;99.90;;;;;;5096264;28;20121;-75
2021/08/06 12:03:15;;;;;;;5.47;3.90;;;22.80;99.90;;;;;;5098040;28;20141;-76
2021/08/06 12:05:42;;;;;;;5.35;4.43;;;23.10;99.90;;;;;;5068276;28;20558;-76
2021/08/06 12:08:16;;;;;;;5.07;4.13;;;23.20;99.90;;;;;;5103148;28;20046;-76
2021/08/06 12:10:43;;;;;;;6.30;4.85;;;23.40;99.90;;;;;;5095603;28;20047;-75
2021/08/06 12:13:15;;;;;;;6.05;4.70;;;23.40;99.90;;;;;;5090006;28;20039;-75
2021/08/06 12:15:41;;;;;;;4.93;4.20;;;23.40;99.90;;;;;;5087723;28;20066;-75
2021/08/06 12:18:21;;;;;;;6.43;4.40;;;23.50;99.90;;;;;;5104219;28;20044;-75
2021/08/06 12:20:56;;;;;;;6.80;4.57;;;23.60;99.90;;;;;;5106733;27;20038;-75
2021/08/06 12:23:22;;;;;;;5.55;4.78;;;;;;;;;;5083845;28;20064;-75
2021/08/06 12:26:10;;;;;;;8.55;4.38;;;23.80;99.90;;;;;;5088552;28;20259;-75
2021/08/06 12:28:39;;;;;;;5.45;4.32;;;24.10;99.90;;;;;;5084347;28;20051;-75
2021/08/06 12:31:18;;;;;;;7.10;5.15;;;24.30;99.90;;;;;;5100464;28;20044;-76
2021/08/06 12:33:48;;;;;;;5.13;3.70;;;24.20;99.90;;;;;;5091979;28;20072;-75
2021/08/06 12:36:19;;;;;;;4.82;3.65;;;24.00;99.90;;;;;;5106189;28;20093;-76
2021/08/06 12:38:49;;;;;;;6.63;3.50;;;23.50;99.90;;;;;;5109096;28;20115;-76
2021/08/06 12:41:30;;;;;;;4.13;3.72;;;23.20;99.90;;;;;;5086457;28;20038;-75
2021/08/06 12:44:34;;;;;;;5.88;4.03;;;22.90;99.90;;;;;;5087427;28;20638;-75
2021/08/06 12:47:12;;;;;;;7.13;3.63;;;22.70;99.90;;;;;;4999169;28;20054;-76
2021/08/06 12:49:39;;;;;;;5.85;3.50;;;22.70;99.90;;;;;;4985197;28;20092;-75
2021/08/06 12:52:16;;;;;;;6.88;3.50;;;22.80;99.90;;;;;;5047182;28;20084;-76
2021/08/06 12:55:04;;;;;;;3.75;3.10;;;23.10;99.90;;;;;;5103880;28;20040;-76
2021/08/06 12:57:50;;;;;;;4.30;3.03;;;23.70;99.90;;;;;;5094037;28;20446;-76
2021/08/06 13:00:25;;;;;;;3.92;2.92;;;24.40;99.90;;;;;;5111473;27;20064;-76
2021/08/06 13:02:59;;;;;;;4.82;3.25;;;24.70;99.90;;;;;;5103125;28;20075;-76
2021/08/06 13:05:26;;;;;;;3.88;2.63;;;24.50;99.90;;;;;;5100238;28;20271;-76
2021/08/06 13:07:52;;;;;;;5.80;3.20;;;24.30;99.90;;;;;;5094769;28;20047;-76
2021/08/06 13:10:30;;;;;;;3.97;3.40;;;24.20;99.90;;;;;;5089815;28;20114;-76
2021/08/06 13:12:57;;;;;;;4.85;3.35;;;24.10;99.90;;;;;;5107045;28;20046;-76
2021/08/06 13:15:24;;;;;;;6.45;3.28;;;24.40;99.90;;;;;;5089429;27;20039;-76
2021/08/06 13:17:50;;;;;;;5.32;3.75;;;24.60;99.90;;;;;;5106281;28;20044;-75
2021/08/06 13:20:17;;;;;;;4.45;3.15;;;24.70;99.90;;;;;;5099500;28;20107;-75
2021/08/06 13:22:43;;;;;;;6.35;3.70;;;24.70;99.90;;;;;;5107938;28;20105;-75
2021/08/06 13:25:11;;;;;;;4.88;3.65;;;24.70;99.90;;;;;;5099352;28;20546;-76
2021/08/06 13:27:38;;;;;;;6.78;3.90;;;24.50;99.90;;;;;;5101946;28;20054;-75
2021/08/06 13:30:08;;;;;;;7.75;3.80;;;24.40;99.90;;;;;;5108077;27;20044;-76
2021/08/06 13:32:37;;;;;;;7.40;4.35;;;24.30;99.90;;;;;;5102219;28;20495;-76
2021/08/06 13:35:05;;;;;;;5.07;3.67;;;24.60;99.90;;;;;;5091984;28;20058;-75
2021/08/06 13:37:31;;;;;;;5.43;4.10;;;24.80;99.90;;;;;;5097909;28;20036;-76
2021/08/06 13:39:57;;;;;;;5.85;4.25;;;24.90;99.90;;;;;;5110605;28;20477;-76
2021/08/06 13:42:23;;;;;;;4.82;3.80;;;25.00;99.90;;;;;;5097452;28;20041;-76
2021/08/06 13:44:49;;;;;;;4.70;3.92;;;25.00;99.90;;;;;;5107292;28;20050;-75
2021/08/06 13:47:15;;;;;;;5.07;4.03;;;24.90;99.90;;;;;;5103495;28;20403;-76
2021/08/06 13:49:41;;;;;;;5.03;3.80;;;24.70;99.90;;;;;;5112162;28;20039;-76
2021/08/06 13:52:07;;;;;;;4.55;3.92;;;24.40;99.90;;;;;;5093358;28;20040;-76
2021/08/06 13:54:33;;;;;;;5.05;3.78;;;24.10;99.90;;;;;;5093384;28;20118;-76
2021/08/06 13:56:59;;;;;;;4.95;3.72;;;24.10;99.90;;;;;;5084034;28;20039;-76
2021/08/06 13:59:25;;;;;;;4.40;3.65;;;24.10;99.90;;;;;;5092450;28;20040;-76